createdAt,value
2023-01-20T00:00:31.979Z,60.47
2023-01-20T00:03:16.244Z,60.63
2023-01-20T00:06:00.924Z,60.11
2023-01-20T00:08:46.619Z,60.46
2023-01-20T00:11:30.970Z,60.42
2023-01-20T00:14:15.418Z,60.43
2023-01-20T00:17:00.343Z,59.62
2023-01-20T00:19:44.391Z,60.72
2023-01-20T00:22:28.474Z,60.99
2023-01-20T00:25:14.139Z,59.99
2023-01-20T00:27:58.392Z,59.80
2023-01-20T00:30:42.623Z,59.96
2023-01-20T00:33:26.560Z,60.14
2023-01-20T00:36:10.990Z,61.35
2023-01-20T00:38:55.070Z,60.97
2023-01-20T00:41:40.278Z,60.79
2023-01-20T00:44:24.147Z,60.43
2023-01-20T00:47:08.409Z,60.53
2023-01-20T00:49:52.325Z,60.94
2023-01-20T00:52:36.156Z,61.29
2023-01-20T00:55:19.982Z,61.24
2023-01-20T00:58:05.605Z,61.55
2023-01-20T01:00:50.381Z,62.11
2023-01-20T01:03:34.381Z,61.54
2023-01-20T01:06:19.109Z,61.56
2023-01-20T01:09:02.912Z,61.98
2023-01-20T01:11:46.889Z,62.01
2023-01-20T01:14:33.964Z,62.50
2023-01-20T01:17:18.226Z,62.53
2023-01-20T01:20:02.348Z,61.96
2023-01-20T01:22:47.436Z,61.99
2023-01-20T01:25:31.337Z,61.58
2023-01-20T01:28:15.561Z,61.94
2023-01-20T01:31:03.538Z,61.75
2023-01-20T01:33:47.426Z,62.50
2023-01-20T01:36:31.114Z,61.90
2023-01-20T01:39:14.877Z,62.13
2023-01-20T01:41:58.860Z,62.21
2023-01-20T01:45:30.316Z,62.68
2023-01-20T01:48:15.872Z,62.54
2023-01-20T01:51:04.052Z,62.86
2023-01-20T01:53:53.853Z,62.92
2023-01-20T01:56:40.161Z,62.17
2023-01-20T01:59:24.054Z,62.91
2023-01-20T02:02:07.881Z,63.08
2023-01-20T02:04:53.101Z,62.36
2023-01-20T02:07:37.608Z,63.12
2023-01-20T02:10:21.331Z,62.73
2023-01-20T02:13:06.472Z,62.70
2023-01-20T02:16:04.415Z,63.47
2023-01-20T02:19:02.027Z,64.36
2023-01-20T02:22:12.691Z,64.39
2023-01-20T02:25:33.506Z,64.75
2023-01-20T02:28:40.740Z,64.56
2023-01-20T02:31:49.436Z,64.96
2023-01-20T02:34:39.484Z,65.58
2023-01-20T02:37:27.254Z,66.24
2023-01-20T02:40:23.918Z,65.85
2023-01-20T02:43:11.737Z,65.72
2023-01-20T02:46:03.185Z,65.83
2023-01-20T02:48:53.092Z,66.12
2023-01-20T02:51:44.242Z,66.44
2023-01-20T02:54:31.939Z,66.57
2023-01-20T02:57:20.142Z,66.62
2023-01-20T03:00:09.044Z,66.54
2023-01-20T03:02:55.926Z,66.49
2023-01-20T03:05:46.975Z,66.41
2023-01-20T03:08:34.562Z,66.47
2023-01-20T03:11:18.420Z,66.99
2023-01-20T03:14:07.477Z,67.24
2023-01-20T03:16:51.652Z,66.78
2023-01-20T03:19:36.405Z,66.53
2023-01-20T03:22:20.294Z,66.52
2023-01-20T03:25:06.581Z,67.93
2023-01-20T03:27:50.541Z,67.92
2023-01-20T03:30:34.433Z,67.15
2023-01-20T03:33:19.528Z,67.63
2023-01-20T03:36:03.730Z,68.02
2023-01-20T03:38:48.294Z,67.55
2023-01-20T03:41:45.584Z,67.48
2023-01-20T03:44:39.632Z,67.47
2023-01-20T03:47:33.729Z,68.10
2023-01-20T03:50:31.159Z,69.68
2023-01-20T03:53:24.203Z,70.14
2023-01-20T03:56:15.679Z,70.22
2023-01-20T03:59:03.500Z,69.20
2023-01-20T04:01:48.338Z,70.27
2023-01-20T04:04:36.065Z,71.13
2023-01-20T04:07:25.877Z,70.73
2023-01-20T04:10:14.347Z,70.28
2023-01-20T04:12:58.358Z,70.55
2023-01-20T04:15:45.650Z,70.49
2023-01-20T04:18:29.430Z,70.60
2023-01-20T04:21:19.470Z,71.22
2023-01-20T04:24:08.329Z,71.69
2023-01-20T04:26:52.142Z,71.44
2023-01-20T04:29:36.040Z,71.09
2023-01-20T04:32:21.511Z,71.37
2023-01-20T04:35:05.741Z,70.89
2023-01-20T04:37:49.572Z,70.80
2023-01-20T04:40:33.709Z,70.41
2023-01-20T04:43:18.529Z,71.79
2023-01-20T04:46:02.267Z,72.13
2023-01-20T04:48:47.436Z,70.99
2023-01-20T04:51:32.975Z,70.35
2023-01-20T04:54:16.894Z,70.71
2023-01-20T04:57:00.873Z,71.18
2023-01-20T04:59:44.926Z,70.66
2023-01-20T05:02:29.062Z,70.43
2023-01-20T05:05:15.232Z,70.56
2023-01-20T05:07:59.888Z,70.38
2023-01-20T05:10:43.988Z,70.52
2023-01-20T05:13:27.955Z,69.59
2023-01-20T05:16:12.867Z,68.98
2023-01-20T05:18:56.777Z,69.43
2023-01-20T05:21:42.859Z,70.43
2023-01-20T05:24:26.743Z,70.10
2023-01-20T05:27:10.767Z,70.93
2023-01-20T05:29:54.862Z,69.59
2023-01-20T05:32:39.061Z,69.24
2023-01-20T05:35:23.248Z,68.86
2023-01-20T05:38:08.734Z,69.21
2023-01-20T05:40:52.800Z,68.50
2023-01-20T05:43:37.487Z,68.26
2023-01-20T05:46:21.537Z,67.67
2023-01-20T05:49:05.591Z,67.87
2023-01-20T05:51:49.703Z,68.49
2023-01-20T05:54:35.198Z,68.73
2023-01-20T05:57:19.282Z,68.31
2023-01-20T06:00:03.501Z,67.98
2023-01-20T06:02:48.885Z,67.81
2023-01-20T06:05:33.066Z,67.92
2023-01-20T06:08:17.072Z,68.09
2023-01-20T06:11:02.979Z,67.31
2023-01-20T06:13:48.337Z,67.63
2023-01-20T06:16:32.363Z,67.08
2023-01-20T06:19:16.647Z,67.41
2023-01-20T06:22:00.584Z,65.72
2023-01-20T06:24:44.628Z,66.14
2023-01-20T06:27:30.090Z,66.04
2023-01-20T06:30:14.528Z,66.49
2023-01-20T06:32:58.540Z,65.49
2023-01-20T06:35:42.549Z,65.19
2023-01-20T06:38:28.438Z,65.56
2023-01-20T06:41:13.616Z,65.03
2023-01-20T06:43:59.239Z,64.85
2023-01-20T06:46:43.375Z,64.15
2023-01-20T06:49:27.606Z,64.07
2023-01-20T06:52:11.719Z,63.35
2023-01-20T06:54:55.759Z,62.88
2023-01-20T06:57:39.671Z,63.01
2023-01-20T07:00:25.784Z,62.17
2023-01-20T07:03:09.858Z,62.00
2023-01-20T07:05:58.729Z,61.69
2023-01-20T07:08:44.166Z,61.99
2023-01-20T07:11:28.594Z,61.15
2023-01-20T07:14:12.330Z,60.86
2023-01-20T07:16:57.424Z,60.91
2023-01-20T07:19:41.269Z,60.76
2023-01-20T07:22:25.132Z,61.17
2023-01-20T07:25:09.461Z,61.42
2023-01-20T07:27:53.312Z,61.43
2023-01-20T07:30:37.198Z,62.34
2023-01-20T07:33:22.550Z,61.94
2023-01-20T07:36:07.996Z,62.38
2023-01-20T07:38:52.622Z,61.74
2023-01-20T07:41:36.424Z,61.32
2023-01-20T07:44:20.153Z,60.16
2023-01-20T07:47:03.853Z,59.94
2023-01-20T07:49:49.328Z,60.52
2023-01-20T07:52:33.413Z,59.67
2023-01-20T07:55:17.677Z,60.14
2023-01-20T07:58:02.359Z,59.89
2023-01-20T08:00:48.902Z,60.40
2023-01-20T08:03:32.908Z,59.64
2023-01-20T08:06:20.037Z,60.51
2023-01-20T08:09:04.385Z,60.41
2023-01-20T08:11:48.365Z,60.25
2023-01-20T08:14:32.255Z,59.43
2023-01-20T08:17:16.736Z,60.18
2023-01-20T08:20:00.807Z,60.15
2023-01-20T08:22:46.460Z,60.84
2023-01-20T08:25:30.445Z,60.21
2023-01-20T08:28:14.558Z,61.35
2023-01-20T08:31:07.283Z,60.45
2023-01-20T08:33:54.612Z,59.34
2023-01-20T08:36:41.020Z,60.01
2023-01-20T08:39:26.511Z,60.26
2023-01-20T08:42:10.528Z,59.90
2023-01-20T08:44:54.880Z,60.13
2023-01-20T08:47:40.249Z,60.39
2023-01-20T08:50:24.842Z,60.94
2023-01-20T08:53:08.931Z,59.54
2023-01-20T08:56:00.029Z,59.56
2023-01-20T08:58:45.028Z,59.68
2023-01-20T09:01:30.827Z,60.72
2023-01-20T09:04:14.875Z,60.51
2023-01-20T09:06:58.854Z,59.35
2023-01-20T09:09:42.776Z,58.73
2023-01-20T09:12:28.117Z,56.46
2023-01-20T09:15:13.943Z,56.91
2023-01-20T09:17:58.847Z,54.96
2023-01-20T09:20:42.640Z,54.25
2023-01-20T09:23:26.556Z,54.17
2023-01-20T09:26:10.528Z,54.09
2023-01-20T09:28:55.845Z,52.64
2023-01-20T09:31:41.132Z,56.37
2023-01-20T09:34:26.559Z,52.92
2023-01-20T09:37:28.049Z,55.26
2023-01-20T09:40:32.071Z,52.16
2023-01-20T09:43:46.780Z,52.44
2023-01-20T09:47:10.318Z,55.46
2023-01-20T09:50:32.083Z,53.06
2023-01-20T09:53:32.833Z,53.97
2023-01-20T09:56:19.077Z,54.41
2023-01-20T09:59:08.693Z,53.15
2023-01-20T10:01:58.059Z,53.90
2023-01-20T10:04:45.012Z,57.10
2023-01-20T10:07:36.493Z,53.28
2023-01-20T10:10:25.000Z,53.20
2023-01-20T10:13:15.659Z,52.65
2023-01-20T10:16:03.461Z,52.43
2023-01-20T10:18:53.128Z,52.72
2023-01-20T10:21:42.990Z,52.22
2023-01-20T10:24:33.537Z,51.94
2023-01-20T10:27:17.453Z,52.08
2023-01-20T10:30:07.497Z,51.34
2023-01-20T10:32:57.058Z,51.46
2023-01-20T10:35:45.699Z,51.74
2023-01-20T10:38:37.475Z,51.46
2023-01-20T10:41:28.180Z,52.19
2023-01-20T10:44:14.022Z,52.24
2023-01-20T10:47:16.226Z,51.77
2023-01-20T10:50:30.664Z,51.93
2023-01-20T10:53:48.660Z,52.18
2023-01-20T10:56:39.316Z,50.52
2023-01-20T10:59:30.270Z,50.78
2023-01-20T11:02:18.461Z,50.91
2023-01-20T11:05:05.966Z,50.11
2023-01-20T11:07:51.519Z,49.88
2023-01-20T11:10:36.760Z,50.11
2023-01-20T11:13:20.605Z,49.67
2023-01-20T11:16:12.889Z,49.57
2023-01-20T11:19:00.866Z,49.70
2023-01-20T11:21:44.827Z,49.78
2023-01-20T11:24:42.668Z,49.30
2023-01-20T11:27:33.243Z,48.89
2023-01-20T11:30:27.519Z,48.34
2023-01-20T11:33:20.604Z,48.02
2023-01-20T11:36:06.783Z,49.06
2023-01-20T11:38:52.019Z,48.36
2023-01-20T11:41:35.815Z,48.90
2023-01-20T11:44:22.531Z,49.64
2023-01-20T11:47:18.067Z,48.87
2023-01-20T11:50:28.310Z,49.11
2023-01-20T11:53:31.796Z,49.17
2023-01-20T11:56:20.857Z,48.63
2023-01-20T11:59:05.727Z,48.80
2023-01-20T12:01:58.589Z,49.45
2023-01-20T12:05:03.731Z,50.16
2023-01-20T12:07:50.680Z,50.18
2023-01-20T12:10:38.625Z,49.40
2023-01-20T12:13:27.357Z,48.72
2023-01-20T12:16:13.223Z,48.18
2023-01-20T12:19:05.162Z,48.07
2023-01-20T12:21:53.571Z,48.02
2023-01-20T12:25:03.173Z,47.70
2023-01-20T12:27:51.210Z,48.47
2023-01-20T12:30:44.027Z,48.70
2023-01-20T12:33:31.602Z,48.55
2023-01-20T12:36:41.082Z,48.22
2023-01-20T12:40:00.047Z,48.51
2023-01-20T12:43:12.926Z,48.73
2023-01-20T12:46:30.513Z,49.38
2023-01-20T12:49:46.633Z,49.80
2023-01-20T12:52:48.128Z,50.04
2023-01-20T12:55:41.005Z,50.76
2023-01-20T12:58:39.788Z,51.36
2023-01-20T13:01:41.213Z,52.93
2023-01-20T13:04:58.555Z,52.81
2023-01-20T13:08:00.923Z,52.97
2023-01-20T13:11:01.695Z,51.97
2023-01-20T13:13:59.987Z,52.62
2023-01-20T13:16:52.073Z,52.23
2023-01-20T13:19:39.545Z,52.00
2023-01-20T13:22:25.212Z,52.30
2023-01-20T13:25:19.117Z,52.32
2023-01-20T13:28:04.588Z,52.58
2023-01-20T13:30:51.740Z,52.79
2023-01-20T13:33:38.305Z,53.08
2023-01-20T13:36:23.942Z,53.83
2023-01-20T13:39:40.715Z,53.81
2023-01-20T13:45:27.815Z,55.09
2023-01-20T13:48:24.829Z,54.75
2023-01-20T13:51:41.567Z,53.61
2023-01-20T13:54:49.028Z,53.48
2023-01-20T13:57:41.783Z,53.82
2023-01-20T14:00:26.890Z,54.91
2023-01-20T14:03:19.400Z,56.09
2023-01-20T14:06:06.066Z,55.79
2023-01-20T14:08:51.893Z,56.56
2023-01-20T14:11:35.798Z,56.67
2023-01-20T14:14:21.045Z,56.78
2023-01-20T14:17:16.278Z,57.18
2023-01-20T14:20:00.494Z,59.06
2023-01-20T14:22:44.472Z,60.80
2023-01-20T14:25:28.490Z,60.60
2023-01-20T14:28:21.466Z,59.77
2023-01-20T14:31:24.976Z,60.78
2023-01-20T14:34:26.960Z,59.68
2023-01-20T14:37:24.444Z,59.73
2023-01-20T14:40:21.225Z,59.85
2023-01-20T14:43:14.526Z,60.30
2023-01-20T14:45:58.636Z,60.46
2023-01-20T14:48:43.782Z,60.18
2023-01-20T14:51:29.147Z,59.83
2023-01-20T14:54:36.617Z,60.62
2023-01-20T14:57:23.822Z,60.31
2023-01-20T15:00:17.894Z,60.45
2023-01-20T15:03:11.268Z,60.09
2023-01-20T15:05:58.320Z,60.38
2023-01-20T15:09:05.092Z,60.92
2023-01-20T15:11:49.779Z,60.80
2023-01-20T15:14:34.282Z,60.84
2023-01-20T15:17:20.424Z,61.17
2023-01-20T15:20:04.378Z,61.85
2023-01-20T15:22:50.884Z,61.11
2023-01-20T15:25:38.664Z,61.81
2023-01-20T15:28:27.045Z,62.54
2023-01-20T15:31:15.039Z,62.43
2023-01-20T15:33:59.001Z,62.05
2023-01-20T15:36:42.927Z,61.95
2023-01-20T15:39:30.407Z,61.13
2023-01-20T15:42:18.556Z,63.13
2023-01-20T15:45:05.690Z,62.87
2023-01-20T15:47:49.984Z,64.23
2023-01-20T15:50:33.955Z,64.84
2023-01-20T15:53:17.864Z,65.38
2023-01-20T15:56:03.520Z,66.49
2023-01-20T15:58:49.151Z,67.13
2023-01-20T16:01:33.103Z,66.96
2023-01-20T16:04:17.257Z,67.91
2023-01-20T16:07:01.358Z,67.51
2023-01-20T16:09:46.825Z,69.05
2023-01-20T16:12:31.016Z,69.32
2023-01-20T16:15:18.424Z,68.49
2023-01-20T16:18:02.679Z,68.70
2023-01-20T16:20:49.835Z,69.09
2023-01-20T16:23:33.842Z,71.25
2023-01-20T16:26:23.060Z,69.34
2023-01-20T16:29:07.152Z,70.00
2023-01-20T16:31:52.884Z,69.45
2023-01-20T16:34:36.949Z,69.47
2023-01-20T16:37:20.792Z,70.94
2023-01-20T16:40:04.829Z,70.25
2023-01-20T16:42:49.343Z,70.73
2023-01-20T16:45:34.711Z,68.88
2023-01-20T16:48:20.006Z,68.95
2023-01-20T16:51:05.570Z,68.17
2023-01-20T16:53:49.447Z,68.61
2023-01-20T16:56:34.040Z,68.05
2023-01-20T16:59:18.490Z,68.76
2023-01-20T17:02:02.314Z,68.34
2023-01-20T17:04:47.552Z,68.88
2023-01-20T17:07:31.447Z,67.76
2023-01-20T17:10:15.855Z,69.87
2023-01-20T17:13:00.253Z,70.34
2023-01-20T17:15:44.526Z,68.97
2023-01-20T17:18:28.400Z,69.25
2023-01-20T17:21:14.314Z,70.56
2023-01-20T17:24:00.458Z,70.69
2023-01-20T17:26:44.326Z,70.74
2023-01-20T17:29:28.351Z,71.09
2023-01-20T17:32:12.403Z,72.45
2023-01-20T17:34:56.454Z,71.11
2023-01-20T17:37:42.136Z,73.60
2023-01-20T17:40:26.212Z,75.31
2023-01-20T17:43:11.334Z,75.61
2023-01-20T17:45:55.406Z,74.50
2023-01-20T17:48:40.161Z,74.24
2023-01-20T17:51:25.769Z,73.86
2023-01-20T17:54:11.660Z,73.24
2023-01-20T17:56:55.631Z,74.30
2023-01-20T17:59:39.583Z,73.51
2023-01-20T18:02:23.974Z,73.79
2023-01-20T18:05:08.628Z,74.67
2023-01-20T18:07:52.652Z,75.19
2023-01-20T18:10:38.050Z,75.94
2023-01-20T18:13:22.215Z,75.95
2023-01-20T18:16:07.337Z,75.33
2023-01-20T18:18:52.077Z,76.67
2023-01-20T18:21:37.921Z,75.85
2023-01-20T18:24:22.050Z,76.37
2023-01-20T18:27:08.282Z,75.98
2023-01-20T18:29:52.378Z,77.55
2023-01-20T18:32:36.362Z,77.16
2023-01-20T18:35:20.749Z,77.35
2023-01-20T18:38:04.764Z,76.64
2023-01-20T18:40:49.007Z,77.78
2023-01-20T18:43:34.666Z,77.80
2023-01-20T18:46:19.827Z,77.12
2023-01-20T18:49:06.853Z,76.67
2023-01-20T18:51:52.221Z,76.38
2023-01-20T18:54:38.955Z,77.08
2023-01-20T18:57:23.715Z,76.84
2023-01-20T19:00:12.126Z,76.44
2023-01-20T19:02:56.282Z,76.78
2023-01-20T19:05:40.619Z,76.17
2023-01-20T19:08:24.710Z,75.36
2023-01-20T19:11:10.895Z,75.44
2023-01-20T19:13:55.890Z,75.96
2023-01-20T19:16:45.497Z,75.98
2023-01-20T19:19:30.409Z,76.03
2023-01-20T19:22:14.570Z,75.02
2023-01-20T19:24:59.230Z,75.70
2023-01-20T19:27:44.070Z,75.39
2023-01-20T19:30:29.233Z,75.29
2023-01-20T19:33:17.495Z,75.21
2023-01-20T19:36:04.060Z,76.25
2023-01-20T19:38:49.725Z,76.19
2023-01-20T19:41:37.133Z,77.57
2023-01-20T19:44:22.285Z,77.42
2023-01-20T19:47:06.536Z,76.60
2023-01-20T19:49:51.840Z,76.63
2023-01-20T19:52:36.760Z,76.52
2023-01-20T19:55:20.819Z,76.73
2023-01-20T19:58:08.139Z,76.75
2023-01-20T20:00:53.668Z,77.26
2023-01-20T20:03:39.906Z,77.66
2023-01-20T20:06:28.764Z,78.34
2023-01-20T20:09:15.983Z,77.52
2023-01-20T20:12:06.453Z,78.54
2023-01-20T20:14:52.568Z,78.98
2023-01-20T20:17:37.871Z,79.34
2023-01-20T20:20:22.545Z,79.53
2023-01-20T20:23:08.260Z,80.25
2023-01-20T20:25:56.773Z,80.03
2023-01-20T20:28:41.117Z,79.66
2023-01-20T20:31:30.023Z,79.21
2023-01-20T20:34:16.180Z,78.68
2023-01-20T20:37:00.277Z,78.18
2023-01-20T20:39:46.082Z,77.10
2023-01-20T20:42:30.465Z,77.77
2023-01-20T20:45:14.565Z,77.40
2023-01-20T20:47:58.898Z,77.80
2023-01-20T20:50:43.153Z,78.86
2023-01-20T20:53:27.192Z,78.70
2023-01-20T20:56:14.612Z,79.30
2023-01-20T20:59:03.148Z,79.03
2023-01-20T21:01:48.671Z,79.13
2023-01-20T21:04:33.319Z,80.05
2023-01-20T21:07:17.495Z,79.38
2023-01-20T21:10:01.639Z,79.16
2023-01-20T21:12:48.935Z,79.71
2023-01-20T21:15:34.669Z,79.12
2023-01-20T21:18:18.507Z,79.55
2023-01-20T21:21:03.596Z,79.09
2023-01-20T21:23:51.589Z,79.71
2023-01-20T21:26:35.490Z,79.31
2023-01-20T21:29:20.837Z,77.37
2023-01-20T21:32:04.710Z,75.20
2023-01-20T21:34:48.665Z,74.07
2023-01-20T21:37:32.519Z,74.80
2023-01-20T21:40:16.785Z,75.11
2023-01-20T21:43:28.703Z,74.45
2023-01-20T21:46:13.029Z,73.70
2023-01-20T21:49:14.564Z,72.96
2023-01-20T21:52:16.129Z,73.14
2023-01-20T21:55:00.008Z,73.59
2023-01-20T21:57:44.050Z,73.96
2023-01-20T22:00:29.712Z,72.75
2023-01-20T22:03:15.027Z,72.71
2023-01-20T22:05:58.785Z,72.04
2023-01-20T22:08:42.555Z,74.03
2023-01-20T22:11:26.796Z,74.85
2023-01-20T22:14:11.319Z,77.46
2023-01-20T22:16:55.164Z,77.99
2023-01-20T22:19:40.736Z,79.49
2023-01-20T22:22:24.738Z,80.14
2023-01-20T22:25:09.171Z,78.79
2023-01-20T22:27:52.971Z,78.53
2023-01-20T22:30:36.759Z,78.49
2023-01-20T22:33:20.609Z,78.00
2023-01-20T22:36:06.650Z,79.04
2023-01-20T22:38:51.920Z,79.58
2023-01-20T22:41:35.903Z,78.31
2023-01-20T22:44:19.711Z,80.82
2023-01-20T22:47:05.797Z,80.91
2023-01-20T22:49:49.688Z,78.11
2023-01-20T22:52:34.914Z,77.76
2023-01-20T22:55:18.674Z,77.83
2023-01-20T22:58:02.621Z,78.22
2023-01-20T23:00:47.324Z,77.47
2023-01-20T23:03:31.341Z,79.09
2023-01-20T23:06:15.959Z,79.63
2023-01-20T23:09:01.429Z,80.79
2023-01-20T23:11:45.469Z,81.74
2023-01-20T23:14:43.133Z,82.71
2023-01-20T23:17:27.417Z,81.65
2023-01-20T23:20:12.632Z,81.70
2023-01-20T23:22:56.468Z,81.18
2023-01-20T23:25:41.638Z,81.92
2023-01-20T23:28:25.393Z,84.48
2023-01-20T23:31:11.058Z,83.88
2023-01-20T23:33:55.244Z,82.59
2023-01-20T23:36:39.190Z,83.69
2023-01-20T23:39:23.018Z,84.65
2023-01-20T23:42:08.180Z,83.57
2023-01-20T23:44:52.028Z,83.51
2023-01-20T23:47:36.066Z,82.98
2023-01-20T23:50:19.984Z,82.58
2023-01-20T23:53:03.885Z,83.26
2023-01-20T23:55:47.836Z,82.50
2023-01-20T23:58:33.191Z,82.35
